Terminal Aerodrome Forecast
Issued by NWS

Home | Current Version | Previous Version | Text Only | Print | Product List | Glossary On
Versions: 1 2 3 4 5 6 7 8 9 10 11 12 13 14 15 16 17 18 19 20 21 22 23 24 25 26 27 28
000
FTUS41 KBUF 311720
TAFJHW
TAF
KJHW 311720Z 3118/0118 28011KT P6SM BKN035
     FM312300 27006KT P6SM FEW250
     FM010800 VRB03KT 1/4SM FG SKC
     FM011200 VRB03KT 2SM BR SKC
     FM011400 24007KT P6SM FEW250
      AMD LTD TO CLD VIS AND WIND=

USA.gov is the U.S. government's official web portal to all federal, state and local government web resources and services.